Main page
METAR-TAF:

METAR-TAF

Airports :

Orange-Caritat Air Base

Orange, France

latitude: 44-08N, longitude: 004-50E, elevation: 60 m

Current weather observation

The report was made 30 minutes ago, at 12:00 UTC
Wind 22 kt from the North
Temperature 14°C
Humidity 58%
Pressure 1014 hPa
Visibility 10 km or more
no clouds below 1500 m and no cumulonimbus

METAR: LFMO 081200Z AUTO 35022KT CAVOK 14/06 Q1014 BECMG 35015G25KT

Time: 13:30 (12:30 UTC)

Forecast

The report was made 4 hours and 30 minutes ago, at 08:00 UTC
Forecast valid from 08 at 09 UTC to 09 at 09 UTC
Wind 15 kt from the North/Northwest
Visibility 10 km or more
no clouds below 1500 m and no cumulonimbus
Becoming
from 08 at 12 UTC to 08 at 14 UTC
Wind 15 kt from the North with gusts up to 25 kt

TAF: LFMO 080800Z 0809/0909 34015KT CAVOK TX15/0815Z TN06/0906Z BECMG 0812/0814 35015G25KT

Weather observations and forecasts of more than 4000 airports (METAR and TAF reports).

The available stations are represented by yellow and red dots on the map.

Hover mouse over dot to see the name of the station.

Then click to see weather observations and forecasts.

To change the map : click on the green buttons with a black cross to zoom in, on the green button with a dash to zoom out, or on the green arrows for adjacent maps.


METAR-TAF: